Time;durP1;ratioP1;P1;durP2;ratioP2;P2;SDS_P1;SDS_P2;PMS_P1;PMS_P2;Temp;Humidity;BMP_temperature;BMP_pressure;BME280_temperature;BME280_humidity;BME280_pressure;Samples;Min_cycle;Max_cycle;Signal;HPM_P1;HPM_P2
2022/05/02 04:05:29;;;;;;;3.58;3.38;;;3.30;99.90;;;;;;5027359;23;20318;-63
2022/05/02 04:07:56;;;;;;;3.10;3.00;;;3.20;99.90;;;;;;4955244;29;20286;-63
2022/05/02 04:10:23;;;;;;;3.10;3.00;;;3.20;99.90;;;;;;4955268;29;20291;-63
2022/05/02 04:12:50;;;;;;;3.70;3.40;;;3.30;99.90;;;;;;4954811;28;20631;-63
2022/05/02 04:15:18;;;;;;;3.53;3.30;;;3.20;99.90;;;;;;4937874;29;20786;-63
2022/05/02 04:17:45;;;;;;;3.67;3.47;;;3.30;99.90;;;;;;4936124;29;20204;-64
2022/05/02 04:20:12;;;;;;;3.60;3.40;;;3.40;99.90;;;;;;4935997;29;20196;-63
2022/05/02 04:22:41;;;;;;;3.55;3.35;;;3.40;99.90;;;;;;4936023;29;20247;-64
2022/05/02 04:25:09;;;;;;;3.20;3.10;;;3.30;99.90;;;;;;4935931;29;20767;-66
2022/05/02 04:27:36;;;;;;;2.80;2.70;;;3.40;99.90;;;;;;4936035;29;20287;-66
2022/05/02 04:30:03;;;;;;;3.60;3.40;;;3.40;99.90;;;;;;4935730;29;20777;-67
2022/05/02 04:32:31;;;;;;;3.00;2.88;;;3.50;99.90;;;;;;4936297;29;20296;-62
2022/05/02 04:34:58;;;;;;;2.78;2.58;;;3.50;99.90;;;;;;4936229;29;20316;-63
2022/05/02 04:37:25;;;;;;;3.25;3.05;;;3.60;99.90;;;;;;4936544;29;20209;-62
2022/05/02 04:39:54;;;;;;;2.90;2.80;;;3.60;99.90;;;;;;4935931;29;20233;-62
2022/05/02 04:42:21;;;;;;;2.55;2.45;;;3.70;99.90;;;;;;4935856;29;20283;-63
2022/05/02 04:44:48;;;;;;;3.28;3.08;;;3.80;99.90;;;;;;4935863;29;20651;-63
2022/05/02 04:47:15;;;;;;;3.25;3.05;;;3.90;99.90;;;;;;4936945;29;20268;-63
2022/05/02 04:49:42;;;;;;;3.20;3.00;;;3.90;99.90;;;;;;4936176;29;20246;-64
2022/05/02 04:52:09;;;;;;;3.10;2.90;;;4.00;99.90;;;;;;4936340;29;20243;-65
2022/05/02 04:54:36;;;;;;;2.90;2.70;;;4.20;99.90;;;;;;4935956;29;20313;-65
2022/05/02 04:57:04;;;;;;;2.65;2.55;;;4.30;99.90;;;;;;4936370;29;20299;-66
2022/05/02 04:59:31;;;;;;;2.40;2.30;;;4.50;99.90;;;;;;4935507;29;20200;-67
2022/05/02 05:01:58;;;;;;;3.38;3.17;;;4.80;99.90;;;;;;4935639;29;20295;-67
2022/05/02 05:04:26;;;;;;;2.83;2.70;;;5.30;99.90;;;;;;4935457;29;20232;-66
2022/05/02 05:06:53;;;;;;;3.25;3.15;;;5.90;99.90;;;;;;4935556;29;20220;-66
2022/05/02 05:09:19;;;;;;;3.30;3.17;;;6.30;99.90;;;;;;4935542;29;20311;-67
2022/05/02 05:11:56;;;;;;;4.10;3.85;;;6.80;99.90;;;;;;4935369;29;20622;-67
2022/05/02 05:17:30;;;;;;;3.97;3.72;;;7.90;99.90;;;;;;4935655;29;20308;-67
2022/05/02 10:43:16;;;;;;;2.85;2.67;;;15.80;43.70;;;;;;4999076;23;20256;-65
2022/05/02 10:45:43;;;;;;;4.25;3.08;;;15.80;44.30;;;;;;4938093;29;20276;-65
2022/05/02 10:48:31;;;;;;;3.70;3.50;;;15.90;44.00;;;;;;4937735;29;20287;-65
2022/05/02 10:51:06;;;;;;;3.40;3.15;;;15.90;43.20;;;;;;4936876;29;20257;-65
2022/05/02 10:54:18;;;;;;;2.40;2.30;;;15.90;42.70;;;;;;4920988;29;20185;-65
2022/05/02 10:56:46;;;;;;;2.08;1.98;;;16.20;43.70;;;;;;4911179;29;20213;-64
2022/05/02 10:59:15;;;;;;;2.10;2.10;;;16.30;39.20;;;;;;4918529;29;20296;-64
2022/05/02 11:02:19;;;;;;;1.98;1.88;;;16.40;38.00;;;;;;4918487;29;20236;-64
2022/05/02 11:04:59;;;;;;;2.97;2.78;;;16.40;36.80;;;;;;4918693;29;20200;-64
2022/05/02 11:07:30;;;;;;;2.47;2.38;;;16.50;39.10;;;;;;4918446;29;20190;-65
2022/05/02 11:10:07;;;;;;;2.05;1.95;;;16.50;38.20;;;;;;4918267;29;20209;-64
2022/05/02 11:12:38;;;;;;;2.25;2.15;;;16.60;37.20;;;;;;4918216;29;20229;-65
2022/05/02 11:15:09;;;;;;;2.42;2.33;;;16.70;36.40;;;;;;4918239;29;20190;-65
2022/05/02 11:17:51;;;;;;;1.70;1.70;;;16.70;38.70;;;;;;4917891;29;20277;-64
2022/05/02 15:44:45;;;;;;;2.00;1.90;;;17.60;28.90;;;;;;5025819;23;20236;-62
2022/05/02 15:47:15;;;;;;;1.80;1.70;;;17.40;28.80;;;;;;4937439;29;20283;-62
2022/05/02 15:49:45;;;;;;;1.80;1.80;;;17.20;29.10;;;;;;4936350;29;20231;-62
2022/05/02 15:52:13;;;;;;;1.88;1.77;;;17.10;29.70;;;;;;4937077;29;20295;-62
2022/05/02 15:54:59;;;;;;;1.40;1.25;;;17.00;29.90;;;;;;4919091;29;20237;-62
2022/05/02 15:57:46;;;;;;;1.05;1.05;;;17.00;29.90;;;;;;4918951;29;20217;-62
2022/05/02 16:00:26;;;;;;;1.30;1.30;;;16.90;30.00;;;;;;4917983;29;20186;-61
2022/05/02 16:03:14;;;;;;;1.30;1.20;;;16.90;30.40;;;;;;4917621;29;20225;-61
2022/05/02 16:05:57;;;;;;;1.77;1.25;;;16.80;31.40;;;;;;4917765;29;20200;-61
2022/05/02 16:11:16;;;;;;;1.60;1.50;;;16.70;30.90;;;;;;4880556;29;20226;-61
2022/05/02 16:13:46;;;;;;;1.35;1.35;;;16.70;30.70;;;;;;4917274;29;20317;-61
2022/05/02 16:16:18;;;;;;;1.50;1.50;;;16.60;31.00;;;;;;4917694;29;20194;-61
2022/05/02 16:18:47;;;;;;;0.90;0.90;;;16.60;31.10;;;;;;4917624;29;20189;-61
2022/05/02 16:21:16;;;;;;;1.42;1.42;;;16.60;31.50;;;;;;4917408;29;20216;-61
2022/05/02 16:23:44;;;;;;;1.98;1.88;;;16.50;31.80;;;;;;4916785;29;20260;-61
2022/05/02 16:26:12;;;;;;;2.65;2.00;;;16.40;32.40;;;;;;4917153;29;20232;-61
2022/05/02 16:28:39;;;;;;;3.33;1.92;;;16.30;32.90;;;;;;4916684;29;20635;-61
2022/05/02 16:31:08;;;;;;;1.80;1.70;;;16.20;33.30;;;;;;4916540;29;20259;-65
2022/05/02 16:33:37;;;;;;;1.30;1.30;;;16.20;34.20;;;;;;4916871;29;20669;-65
2022/05/02 16:36:05;;;;;;;1.35;1.27;;;16.10;34.10;;;;;;4916743;29;20550;-64
2022/05/02 16:38:35;;;;;;;1.20;1.20;;;16.10;35.50;;;;;;4916796;29;20216;-65
2022/05/02 16:41:06;;;;;;;1.30;1.30;;;16.00;36.20;;;;;;4917209;29;20201;-64
2022/05/02 16:43:33;;;;;;;1.23;1.23;;;16.00;37.00;;;;;;4917214;29;20316;-64
2022/05/02 16:46:03;;;;;;;1.65;1.55;;;16.00;37.70;;;;;;4916779;29;20220;-64
2022/05/02 16:48:30;;;;;;;2.05;1.40;;;16.10;38.50;;;;;;4916875;29;20202;-65
2022/05/02 16:50:59;;;;;;;1.20;1.20;;;16.10;40.10;;;;;;4916875;29;20320;-65
2022/05/02 16:53:27;;;;;;;1.20;1.20;;;16.10;42.70;;;;;;4917177;29;20255;-66
2022/05/02 16:55:54;;;;;;;1.25;1.25;;;16.20;43.50;;;;;;4917557;29;20209;-66
2022/05/02 16:58:24;;;;;;;2.10;2.00;;;16.20;44.10;;;;;;4921041;29;20205;-66
2022/05/02 17:00:57;;;;;;;2.03;1.95;;;16.20;45.10;;;;;;4918195;29;20201;-67
2022/05/02 17:03:29;;;;;;;1.85;1.75;;;16.20;45.40;;;;;;4916845;29;20229;-65
2022/05/02 17:06:02;;;;;;;1.45;1.45;;;16.20;45.30;;;;;;4917038;29;20201;-67
2022/05/02 17:08:30;;;;;;;1.60;1.60;;;16.20;46.10;;;;;;4917333;29;20712;-67
2022/05/02 17:10:58;;;;;;;1.80;1.70;;;16.20;46.30;;;;;;4918554;29;20792;-67
2022/05/02 17:13:27;;;;;;;1.92;1.83;;;16.20;45.80;;;;;;4918309;29;20316;-67
2022/05/02 17:16:08;;;;;;;1.73;1.63;;;16.10;46.80;;;;;;4918578;29;20206;-65
2022/05/02 17:18:39;;;;;;;2.05;1.90;;;16.10;46.50;;;;;;4916746;29;20539;-64
2022/05/02 17:21:15;;;;;;;1.80;1.80;;;16.10;46.70;;;;;;4917716;29;20529;-64
2022/05/02 17:23:43;;;;;;;1.70;1.60;;;16.10;46.30;;;;;;4920203;29;20280;-65
2022/05/02 17:26:11;;;;;;;2.10;2.00;;;16.10;46.60;;;;;;4920221;29;20292;-65
2022/05/02 17:28:42;;;;;;;1.80;1.70;;;16.00;45.40;;;;;;4920189;29;20288;-65
2022/05/02 17:31:11;;;;;;;2.83;2.53;;;16.00;45.50;;;;;;4920302;29;20300;-64
2022/05/02 17:33:44;;;;;;;2.60;2.50;;;15.90;41.70;;;;;;4920291;29;20229;-64
2022/05/02 17:36:13;;;;;;;2.47;2.38;;;15.90;42.20;;;;;;4919902;29;20621;-65
2022/05/02 17:38:43;;;;;;;2.80;2.60;;;15.80;41.10;;;;;;4923909;29;20232;-65
2022/05/02 17:41:13;;;;;;;2.17;2.08;;;15.80;40.70;;;;;;4924232;29;20209;-65
2022/05/02 17:43:49;;;;;;;2.40;2.30;;;15.80;40.50;;;;;;4924348;29;20728;-64
2022/05/02 17:46:17;;;;;;;2.95;2.75;;;15.70;40.00;;;;;;4924453;29;20193;-65
2022/05/02 17:48:46;;;;;;;1.92;1.92;;;15.60;40.30;;;;;;4923650;29;20209;-65
2022/05/02 17:51:16;;;;;;;2.90;2.45;;;15.50;40.60;;;;;;4924504;29;20221;-65
2022/05/02 17:53:49;;;;;;;2.30;2.20;;;15.50;40.90;;;;;;4924416;29;20240;-66
2022/05/02 17:56:21;;;;;;;2.25;2.15;;;15.40;41.80;;;;;;4921820;29;20256;-67
2022/05/02 17:58:58;;;;;;;2.05;2.05;;;15.40;42.20;;;;;;4922741;29;20185;-67
2022/05/02 18:01:26;;;;;;;2.47;2.30;;;15.30;42.30;;;;;;4921638;29;20188;-67
2022/05/02 18:03:54;;;;;;;2.70;2.60;;;15.20;42.50;;;;;;4919610;29;20230;-67
2022/05/02 18:06:27;;;;;;;2.30;2.20;;;15.20;42.80;;;;;;4919528;29;20206;-67
2022/05/02 18:09:00;;;;;;;2.67;2.10;;;15.10;43.10;;;;;;4919764;29;20280;-68
2022/05/02 18:14:22;;;;;;;1.65;1.60;;;15.00;50.40;;;;;;4919869;29;20236;-66
2022/05/02 18:17:02;;;;;;;1.30;1.30;;;14.80;54.50;;;;;;4919938;29;20221;-67
2022/05/02 18:19:31;;;;;;;1.48;1.48;;;14.70;58.80;;;;;;4919694;29;20598;-67
2022/05/02 18:22:07;;;;;;;1.30;1.30;;;14.50;64.20;;;;;;4920312;29;20634;-66
2022/05/02 18:24:37;;;;;;;1.30;1.30;;;14.30;67.00;;;;;;4919094;29;20672;-65
2022/05/02 18:27:12;;;;;;;1.10;1.10;;;14.10;69.10;;;;;;4919389;29;20208;-65
2022/05/02 18:29:44;;;;;;;0.98;0.98;;;13.90;69.70;;;;;;4919251;29;20196;-66
2022/05/02 18:32:23;;;;;;;1.48;1.48;;;13.70;73.40;;;;;;4918567;29;20186;-66
2022/05/02 18:38:07;;;;;;;1.23;1.23;;;13.40;85.80;;;;;;4919154;29;20189;-66
2022/05/02 18:40:37;;;;;;;1.00;1.00;;;13.20;91.40;;;;;;4918668;29;20695;-66
2022/05/02 18:43:07;;;;;;;1.15;1.15;;;13.00;94.40;;;;;;4919039;29;20225;-66
2022/05/02 18:54:03;;;;;;;0.82;0.82;;;12.50;99.90;;;;;;4919378;29;20260;-66
2022/05/02 18:56:35;;;;;;;1.10;1.10;;;12.30;99.90;;;;;;4918844;29;20253;-66
2022/05/02 18:59:06;;;;;;;0.98;0.98;;;12.20;99.90;;;;;;4918649;29;20208;-66
2022/05/02 19:01:35;;;;;;;0.90;0.90;;;12.10;99.90;;;;;;4918505;29;20197;-66
2022/05/02 19:04:03;;;;;;;1.05;1.05;;;12.00;99.90;;;;;;4918609;29;20317;-66
2022/05/02 19:06:41;;;;;;;0.80;0.80;;;11.90;99.90;;;;;;4918794;29;20297;-66
2022/05/02 19:09:11;;;;;;;0.90;0.90;;;11.80;99.90;;;;;;4918482;29;20637;-67
2022/05/02 19:11:41;;;;;;;1.02;1.02;;;11.70;99.90;;;;;;4918899;29;20316;-67
2022/05/02 19:14:13;;;;;;;0.98;0.98;;;11.60;99.90;;;;;;4918486;29;20233;-65
2022/05/02 19:16:46;;;;;;;0.93;0.93;;;11.50;99.90;;;;;;4918553;29;20201;-66
2022/05/02 19:19:15;;;;;;;0.80;0.80;;;11.40;99.90;;;;;;4918205;29;20284;-66
2022/05/02 19:22:05;;;;;;;0.90;0.90;;;11.30;99.90;;;;;;4918295;29;20208;-66
2022/05/02 19:25:02;;;;;;;0.95;0.95;;;11.20;99.90;;;;;;4914216;29;20230;-67
2022/05/02 19:27:30;;;;;;;1.05;1.05;;;11.10;99.90;;;;;;4918180;29;20623;-66
2022/05/02 19:30:03;;;;;;;0.90;0.90;;;11.00;99.90;;;;;;4918619;29;20229;-65
2022/05/02 19:32:30;;;;;;;0.98;0.98;;;10.90;99.90;;;;;;4918043;29;20252;-65
2022/05/02 19:40:41;;;;;;;1.00;1.00;;;10.70;99.90;;;;;;4918128;29;20245;-66
2022/05/02 19:43:15;;;;;;;1.27;1.27;;;10.60;99.90;;;;;;4918121;29;20225;-66
2022/05/02 19:45:48;;;;;;;1.20;1.20;;;10.60;99.90;;;;;;4917665;29;20209;-67
2022/05/02 19:48:16;;;;;;;0.93;0.93;;;10.50;99.90;;;;;;4917972;29;20190;-67
2022/05/02 19:50:44;;;;;;;1.27;1.27;;;10.40;99.90;;;;;;4917920;29;20228;-67
2022/05/02 19:53:11;;;;;;;1.25;1.25;;;10.40;99.90;;;;;;4917845;29;20328;-67
2022/05/02 19:55:40;;;;;;;1.00;1.00;;;10.30;99.90;;;;;;4917846;29;20237;-67
2022/05/02 19:58:07;;;;;;;1.08;1.08;;;10.20;99.90;;;;;;4917897;29;20292;-67
2022/05/02 20:00:34;;;;;;;1.00;1.00;;;10.20;99.90;;;;;;4917689;29;20208;-70
2022/05/02 20:03:02;;;;;;;1.20;1.20;;;10.10;99.90;;;;;;4917668;29;20342;-67
2022/05/02 20:05:31;;;;;;;1.20;1.20;;;10.10;99.90;;;;;;4917457;29;20573;-67
2022/05/02 20:07:58;;;;;;;1.23;1.23;;;10.00;99.90;;;;;;4917634;29;20228;-68
2022/05/02 20:10:25;;;;;;;1.50;1.50;;;10.00;99.90;;;;;;4917424;29;20301;-68
2022/05/02 20:12:53;;;;;;;1.42;1.42;;;9.90;99.90;;;;;;4917166;29;20641;-68
2022/05/02 20:15:21;;;;;;;1.52;1.52;;;9.90;99.90;;;;;;4917495;29;20240;-68
2022/05/02 20:17:49;;;;;;;1.50;1.50;;;9.80;99.90;;;;;;4917896;29;20227;-68
2022/05/02 20:20:15;;;;;;;1.50;1.50;;;9.80;99.90;;;;;;4917393;29;20398;-67
2022/05/02 20:22:42;;;;;;;1.60;1.60;;;9.70;99.90;;;;;;4917229;29;20296;-67
2022/05/02 20:25:13;;;;;;;1.33;1.33;;;9.70;99.90;;;;;;4917127;29;20305;-67
2022/05/02 20:27:43;;;;;;;1.45;1.40;;;9.60;99.90;;;;;;4917467;29;20562;-67
2022/05/02 20:30:14;;;;;;;1.83;1.77;;;9.50;99.90;;;;;;4917508;29;20284;-68
2022/05/02 20:38:16;;;;;;;1.63;1.63;;;9.40;99.90;;;;;;4917161;29;20192;-67
2022/05/02 20:40:46;;;;;;;1.50;1.50;;;9.40;99.90;;;;;;4917259;29;20285;-68
2022/05/02 20:43:22;;;;;;;1.60;1.60;;;9.30;99.90;;;;;;4917405;29;20593;-68
2022/05/02 20:45:53;;;;;;;1.73;1.65;;;9.20;99.90;;;;;;4917353;29;20224;-68
2022/05/02 20:48:24;;;;;;;1.67;1.67;;;9.20;99.90;;;;;;4917148;29;20283;-68
2022/05/02 20:50:52;;;;;;;1.45;1.45;;;9.10;99.90;;;;;;4916760;29;20213;-68
2022/05/02 20:53:22;;;;;;;1.67;1.67;;;9.10;99.90;;;;;;4917288;29;20320;-67
2022/05/02 20:55:54;;;;;;;1.63;1.63;;;9.10;99.90;;;;;;4917580;29;20685;-67
2022/05/02 20:58:22;;;;;;;1.50;1.50;;;9.00;99.90;;;;;;4920868;29;20276;-67
2022/05/02 21:00:51;;;;;;;1.70;1.70;;;9.00;99.90;;;;;;4920920;29;20292;-67
2022/05/02 21:03:17;;;;;;;1.60;1.60;;;8.90;99.90;;;;;;4920526;29;20308;-67
2022/05/02 21:05:47;;;;;;;1.63;1.63;;;8.90;99.90;;;;;;4920860;29;20298;-67
2022/05/02 21:08:19;;;;;;;1.30;1.30;;;8.90;99.90;;;;;;4920666;29;20300;-67
2022/05/02 21:10:50;;;;;;;1.60;1.60;;;8.80;99.90;;;;;;4920630;29;20288;-67
2022/05/02 21:13:25;;;;;;;1.42;1.42;;;8.80;99.90;;;;;;4920710;29;20419;-67
2022/05/02 21:16:08;;;;;;;1.40;1.40;;;8.70;99.90;;;;;;4920285;29;20653;-67
2022/05/02 21:18:42;;;;;;;1.40;1.40;;;8.60;99.90;;;;;;4920604;29;20272;-67
2022/05/02 21:21:23;;;;;;;1.75;1.75;;;8.60;99.90;;;;;;4920617;29;20268;-66
2022/05/02 21:24:00;;;;;;;1.50;1.50;;;8.50;99.90;;;;;;4920428;29;20229;-67
2022/05/02 21:26:42;;;;;;;1.98;1.95;;;8.40;99.90;;;;;;4920177;29;20558;-67
2022/05/02 21:29:16;;;;;;;1.60;1.60;;;8.40;99.90;;;;;;4920532;29;20198;-67
2022/05/02 21:32:02;;;;;;;1.67;1.67;;;8.30;99.90;;;;;;4920239;29;20270;-67
2022/05/02 21:34:34;;;;;;;1.58;1.58;;;8.30;99.90;;;;;;4920198;29;20260;-66
2022/05/02 21:37:03;;;;;;;1.33;1.33;;;8.30;99.90;;;;;;4920066;29;20280;-66
2022/05/02 21:39:34;;;;;;;1.20;1.20;;;8.20;99.90;;;;;;4920083;29;20300;-66
2022/05/02 21:42:01;;;;;;;1.80;1.80;;;8.20;99.90;;;;;;4920080;29;20277;-66
2022/05/02 21:44:27;;;;;;;1.38;1.38;;;8.20;99.90;;;;;;4920041;29;20328;-67
2022/05/02 21:46:56;;;;;;;1.88;1.88;;;8.20;99.90;;;;;;4920004;29;20296;-67
2022/05/02 21:49:22;;;;;;;1.52;1.52;;;8.20;99.90;;;;;;4919714;29;20736;-66
